Los Angeles, California
Traffic Map
Current Weather Conditions
Los Angeles, California
Clear
Clear
27°
Feels Like: 27°
Wind Chill: 27° Ceiling: Unl
Heat Index: 27° Visibility: 10mi
Dew Point: 13° Wind: 5mph
Humidity: 41% Direction: ° ()
Pressure: 29.98in Gusts: 0mph
Raw Report DataKCQT 230047Z AUTO VRB04KT 10SM CLR 27/13 A2998 RMK AO2 SLP149 T02720128
Traffic Incident Summary
Active as of:
Severity:
Category:
InformationThere was an issue retrieving the traffic information for this location. Please try a different location or try again shortly.
Advertisements
Track Severe Weather on mobile